createdAt,value
2023-01-29T00:02:06.277Z,102707.34
2023-01-29T00:04:33.102Z,102697.94
2023-01-29T00:07:00.498Z,102699.75
2023-01-29T00:09:29.954Z,102703.91
2023-01-29T00:11:57.873Z,102699.63
2023-01-29T00:14:26.623Z,102692.69
2023-01-29T00:16:53.852Z,102688.44
2023-01-29T00:19:20.869Z,102699.63
2023-01-29T00:21:47.806Z,102700.44
2023-01-29T00:24:14.723Z,102681.59
2023-01-29T00:26:42.518Z,102683.28
2023-01-29T00:29:09.283Z,102684.09
2023-01-29T00:31:36.218Z,102679.81
2023-01-29T00:34:03.631Z,102673.78
2023-01-29T00:36:30.448Z,102661.81
2023-01-29T00:38:59.146Z,102666.94
2023-01-29T00:41:52.051Z,102659.25
2023-01-29T00:44:37.722Z,102646.38
2023-01-29T00:47:26.179Z,102642.13
2023-01-29T00:49:53.350Z,102644.69
2023-01-29T00:52:26.281Z,102645.59
2023-01-29T00:54:54.844Z,102639.72
2023-01-29T00:57:22.392Z,102637.28
2023-01-29T00:59:51.116Z,102630.44
2023-01-29T01:02:37.653Z,102635.63
2023-01-29T01:05:07.776Z,102631.41
2023-01-29T01:07:34.881Z,102638.25
2023-01-29T01:10:20.466Z,102631.41
2023-01-29T01:12:59.844Z,102634.03
2023-01-29T01:15:32.837Z,102640.00
2023-01-29T01:18:01.057Z,102646.78
2023-01-29T01:20:30.413Z,102637.38
2023-01-29T01:22:58.907Z,102635.56
2023-01-29T01:25:27.444Z,102635.56
2023-01-29T01:30:26.256Z,102622.81
2023-01-29T01:32:53.687Z,102633.91
2023-01-29T01:35:20.551Z,102634.75
2023-01-29T01:37:47.509Z,102642.41
2023-01-29T01:40:19.149Z,102644.16
2023-01-29T01:42:54.975Z,102642.50
2023-01-29T01:45:31.711Z,102645.94
2023-01-29T01:48:17.433Z,102639.84
2023-01-29T01:50:53.918Z,102633.91
2023-01-29T01:53:30.764Z,102632.09
2023-01-29T01:56:05.284Z,102631.28
2023-01-29T01:58:37.525Z,102639.72
2023-01-29T02:01:07.641Z,102634.66
2023-01-29T02:04:04.765Z,102634.59
2023-01-29T02:06:51.725Z,102623.53
2023-01-29T02:09:35.596Z,102622.75
2023-01-29T02:12:14.909Z,102640.69
2023-01-29T02:14:43.566Z,102656.13
2023-01-29T02:17:15.928Z,102646.03
2023-01-29T02:20:02.325Z,102656.28
2023-01-29T02:22:47.489Z,102656.28
2023-01-29T02:25:44.935Z,102648.44
2023-01-29T02:28:25.791Z,102650.88
2023-01-29T02:31:02.013Z,102644.09
2023-01-29T02:33:39.625Z,102653.63
2023-01-29T02:36:06.540Z,102660.44
2023-01-29T02:38:40.673Z,102668.91
2023-01-29T02:41:22.398Z,102671.44
2023-01-29T02:43:59.969Z,102667.16
2023-01-29T02:46:44.635Z,102678.91
2023-01-29T02:49:16.918Z,102678.84
2023-01-29T02:52:00.675Z,102676.28
2023-01-29T02:54:50.719Z,102672.06
2023-01-29T02:57:20.252Z,102669.50
2023-01-29T02:59:58.089Z,102667.84
2023-01-29T03:02:42.240Z,102668.72
2023-01-29T03:05:18.627Z,102667.91
2023-01-29T03:08:04.280Z,102664.50
2023-01-29T03:10:49.932Z,102657.78
2023-01-29T03:13:28.285Z,102662.03
2023-01-29T03:16:05.018Z,102652.75
2023-01-29T03:18:41.312Z,102647.66
2023-01-29T03:21:32.395Z,102640.06
2023-01-29T03:24:18.749Z,102634.09
2023-01-29T03:27:03.924Z,102629.91
2023-01-29T03:29:52.462Z,102622.34
2023-01-29T03:32:21.721Z,102609.63
2023-01-29T03:34:53.098Z,102597.69
2023-01-29T03:37:34.527Z,102603.72
2023-01-29T03:40:04.648Z,102584.97
2023-01-29T03:42:57.974Z,102596.09
2023-01-29T03:45:42.921Z,102593.41
2023-01-29T03:48:15.439Z,102599.28
2023-01-29T03:51:13.308Z,102589.06
2023-01-29T03:54:05.085Z,102577.88
2023-01-29T03:56:34.514Z,102578.72
2023-01-29T03:59:12.910Z,102583.78
2023-01-29T04:01:52.691Z,102581.25
2023-01-29T04:04:27.123Z,102584.56
2023-01-29T04:06:58.376Z,102583.78
2023-01-29T04:09:33.220Z,102573.47
2023-01-29T04:12:09.267Z,102565.91
2023-01-29T04:14:37.793Z,102570.19
2023-01-29T04:17:16.415Z,102560.03
2023-01-29T04:19:43.877Z,102549.13
2023-01-29T04:22:25.030Z,102550.00
2023-01-29T04:24:51.993Z,102561.97
2023-01-29T04:27:26.483Z,102555.03
2023-01-29T04:30:04.548Z,102553.41
2023-01-29T04:32:48.385Z,102555.03
2023-01-29T04:35:36.343Z,102546.41
2023-01-29T04:38:20.688Z,102543.84
2023-01-29T04:41:27.412Z,102550.72
2023-01-29T04:44:00.817Z,102545.59
2023-01-29T04:46:33.638Z,102540.47
2023-01-29T04:49:19.864Z,102532.06
2023-01-29T04:52:00.498Z,102525.22
2023-01-29T04:54:51.316Z,102530.50
2023-01-29T04:57:25.977Z,102529.66
2023-01-29T05:00:12.177Z,102533.97
2023-01-29T05:02:41.036Z,102533.97
2023-01-29T05:05:09.568Z,102538.16
2023-01-29T05:07:38.804Z,102544.88
2023-01-29T05:10:08.258Z,102546.56
2023-01-29T05:12:38.171Z,102551.59
2023-01-29T05:15:11.687Z,102548.16
2023-01-29T05:17:38.389Z,102546.47
2023-01-29T05:20:06.151Z,102546.59
2023-01-29T05:22:32.981Z,102538.03
2023-01-29T05:24:59.785Z,102541.44
2023-01-29T05:27:53.826Z,102551.69
2023-01-29T05:30:21.927Z,102543.16
2023-01-29T05:32:49.167Z,102544.97
2023-01-29T05:35:16.399Z,102544.97
2023-01-29T05:37:43.281Z,102544.03
2023-01-29T05:40:10.810Z,102558.59
2023-01-29T05:42:37.668Z,102556.09
2023-01-29T05:45:05.516Z,102555.25
2023-01-29T05:47:32.611Z,102555.25
2023-01-29T05:49:59.480Z,102549.34
2023-01-29T05:52:26.372Z,102541.66
2023-01-29T05:54:53.227Z,102534.84
2023-01-29T05:57:20.020Z,102517.69
2023-01-29T05:59:47.093Z,102517.69
2023-01-29T06:02:14.953Z,102513.41
2023-01-29T06:04:44.558Z,102514.22
2023-01-29T06:07:13.494Z,102522.75
2023-01-29T06:09:41.524Z,102527.03
2023-01-29T06:12:08.707Z,102522.81
2023-01-29T06:14:35.675Z,102520.25
2023-01-29T06:17:02.461Z,102519.41
2023-01-29T06:19:29.400Z,102527.16
2023-01-29T06:21:58.937Z,102522.88
2023-01-29T06:24:26.187Z,102528.00
2023-01-29T06:26:53.291Z,102533.88
2023-01-29T06:29:20.295Z,102531.31
2023-01-29T06:31:47.505Z,102521.09
2023-01-29T06:34:14.388Z,102517.69
2023-01-29T06:36:41.874Z,102511.81
2023-01-29T06:39:09.220Z,102513.53
2023-01-29T06:41:35.913Z,102514.44
2023-01-29T06:44:02.533Z,102528.06
2023-01-29T06:46:29.190Z,102528.22
2023-01-29T06:48:59.087Z,102518.03
2023-01-29T06:51:25.865Z,102507.78
2023-01-29T06:53:54.811Z,102508.72
2023-01-29T06:56:21.875Z,102507.78
2023-01-29T06:58:48.508Z,102499.22
2023-01-29T07:01:34.281Z,102503.50
2023-01-29T07:04:02.963Z,102504.34
2023-01-29T07:06:30.557Z,102492.38
2023-01-29T07:08:57.280Z,102506.81
2023-01-29T07:11:25.189Z,102505.09
2023-01-29T07:13:51.805Z,102506.78
2023-01-29T07:16:19.217Z,102511.81
2023-01-29T07:18:46.065Z,102508.41
2023-01-29T07:21:12.749Z,102510.13
2023-01-29T07:23:39.356Z,102520.38
2023-01-29T07:26:06.524Z,102526.28
2023-01-29T07:28:37.907Z,102526.19
2023-01-29T07:31:05.442Z,102513.47
2023-01-29T07:33:32.168Z,102508.34
2023-01-29T07:36:00.056Z,102497.31
2023-01-29T07:38:26.698Z,102499.00
2023-01-29T07:40:53.552Z,102503.28
2023-01-29T07:43:22.039Z,102508.41
2023-01-29T07:45:48.960Z,102505.78
2023-01-29T07:48:18.844Z,102500.69
2023-01-29T07:50:47.355Z,102493.75
2023-01-29T07:53:15.499Z,102488.53
2023-01-29T07:55:45.441Z,102484.94
2023-01-29T07:58:12.504Z,102482.31
2023-01-29T08:00:39.424Z,102482.31
2023-01-29T08:03:09.608Z,102479.66
2023-01-29T08:05:36.498Z,102460.84
2023-01-29T08:08:07.497Z,102459.84
2023-01-29T08:10:35.460Z,102464.09
2023-01-29T08:13:03.658Z,102459.78
2023-01-29T08:15:30.716Z,102446.00
2023-01-29T08:20:44.384Z,102446.63
2023-01-29T08:23:16.466Z,102438.78
2023-01-29T08:25:43.318Z,102445.56
2023-01-29T08:28:10.245Z,102446.41
2023-01-29T08:30:37.085Z,102444.66
2023-01-29T08:33:07.413Z,102450.47
2023-01-29T08:35:34.013Z,102452.06
2023-01-29T08:38:03.377Z,102453.69
2023-01-29T08:40:32.927Z,102454.44
2023-01-29T08:43:07.028Z,102450.16
2023-01-29T08:45:37.017Z,102443.31
2023-01-29T08:48:04.321Z,102445.78
2023-01-29T08:50:31.939Z,102432.91
2023-01-29T08:53:00.107Z,102432.81
2023-01-29T08:55:27.628Z,102427.63
2023-01-29T08:57:54.748Z,102431.84
2023-01-29T09:00:21.705Z,102435.25
2023-01-29T09:02:48.338Z,102442.09
2023-01-29T09:05:15.634Z,102439.53
2023-01-29T09:07:43.608Z,102448.28
2023-01-29T09:10:11.935Z,102442.94
2023-01-29T09:12:38.483Z,102440.28
2023-01-29T09:15:05.429Z,102446.91
2023-01-29T09:17:33.192Z,102444.13
2023-01-29T09:19:59.794Z,102440.56
2023-01-29T09:22:26.511Z,102441.25
2023-01-29T09:24:53.253Z,102448.88
2023-01-29T09:27:19.878Z,102449.63
2023-01-29T09:29:46.508Z,102449.56
2023-01-29T09:32:13.295Z,102444.44
2023-01-29T09:34:40.097Z,102436.66
2023-01-29T09:37:06.744Z,102440.84
2023-01-29T09:39:33.867Z,102443.41
2023-01-29T09:42:11.292Z,102447.56
2023-01-29T09:44:56.847Z,102446.75
2023-01-29T09:47:26.796Z,102441.63
2023-01-29T09:49:57.012Z,102445.84
2023-01-29T09:52:43.961Z,102438.00
2023-01-29T09:55:31.694Z,102443.88
2023-01-29T09:58:07.092Z,102433.63
2023-01-29T10:01:18.971Z,102425.00
2023-01-29T10:04:00.687Z,102424.84
2023-01-29T10:06:52.121Z,102423.97
2023-01-29T10:09:48.127Z,102411.13
2023-01-29T10:12:26.944Z,102416.94
2023-01-29T10:15:29.477Z,102406.66
2023-01-29T10:18:05.201Z,102402.22
2023-01-29T10:21:07.446Z,102404.78
2023-01-29T10:23:38.516Z,102391.97
2023-01-29T10:26:05.226Z,102388.47
2023-01-29T10:28:34.649Z,102388.41
2023-01-29T10:31:09.527Z,102385.91
2023-01-29T10:33:49.186Z,102383.34
2023-01-29T10:36:32.264Z,102385.75
2023-01-29T10:39:00.044Z,102385.75
2023-01-29T10:41:38.632Z,102378.81
2023-01-29T10:44:16.944Z,102368.47
2023-01-29T10:46:58.402Z,102371.88
2023-01-29T10:49:43.734Z,102368.56
2023-01-29T10:52:11.191Z,102367.72
2023-01-29T10:55:00.941Z,102366.72
2023-01-29T10:57:48.924Z,102363.03
2023-01-29T11:00:21.837Z,102349.22
2023-01-29T11:02:50.739Z,102350.13
2023-01-29T11:05:43.894Z,102339.94
2023-01-29T11:08:18.963Z,102335.56
2023-01-29T11:11:05.095Z,102334.63
2023-01-29T11:13:40.659Z,102329.34
2023-01-29T11:16:09.472Z,102327.50
2023-01-29T11:18:55.244Z,102324.78
2023-01-29T11:21:23.226Z,102318.69
2023-01-29T11:23:50.054Z,102308.41
2023-01-29T11:26:24.102Z,102308.31
2023-01-29T11:28:51.557Z,102301.28
2023-01-29T11:31:22.622Z,102300.47
2023-01-29T11:33:54.109Z,102305.50
2023-01-29T11:36:38.458Z,102294.16
2023-01-29T11:39:16.646Z,102285.56
2023-01-29T11:42:04.819Z,102282.72
2023-01-29T11:44:41.819Z,102283.56
2023-01-29T11:47:18.837Z,102271.38
2023-01-29T11:49:49.589Z,102266.25
2023-01-29T11:52:19.911Z,102273.19
2023-01-29T11:54:51.985Z,102274.03
2023-01-29T11:57:26.069Z,102258.53
2023-01-29T11:59:54.840Z,102249.94
2023-01-29T12:02:31.661Z,102249.78
2023-01-29T12:05:20.399Z,102240.31
2023-01-29T12:07:56.587Z,102239.41
2023-01-29T12:10:39.716Z,102235.84
2023-01-29T12:13:26.561Z,102230.63
2023-01-29T12:16:13.327Z,102217.72
2023-01-29T12:18:44.797Z,102217.88
2023-01-29T12:21:30.497Z,102219.53
2023-01-29T12:24:42.381Z,102204.94
2023-01-29T12:27:45.437Z,102208.97
2023-01-29T12:30:18.314Z,102203.94
2023-01-29T12:32:58.543Z,102199.66
2023-01-29T12:35:50.408Z,102200.47
2023-01-29T12:38:20.930Z,102190.28
2023-01-29T12:41:04.392Z,102192.84
2023-01-29T12:43:38.818Z,102185.97
2023-01-29T12:46:12.124Z,102184.34
2023-01-29T12:48:43.719Z,102179.22
2023-01-29T12:51:16.620Z,102168.84
2023-01-29T12:54:20.086Z,102174.44
2023-01-29T12:56:53.912Z,102163.28
2023-01-29T12:59:30.379Z,102152.19
2023-01-29T13:02:02.270Z,102141.91
2023-01-29T13:04:46.891Z,102138.41
2023-01-29T13:07:25.567Z,102138.13
2023-01-29T13:10:01.907Z,102135.50
2023-01-29T13:12:29.224Z,102128.63
2023-01-29T13:15:06.665Z,102119.88
2023-01-29T13:17:37.901Z,102122.28
2023-01-29T13:20:18.986Z,102118.72
2023-01-29T13:22:48.340Z,102122.94
2023-01-29T13:25:19.980Z,102122.72
2023-01-29T13:27:48.205Z,102113.41
2023-01-29T13:30:31.419Z,102115.13
2023-01-29T13:33:11.385Z,102116.88
2023-01-29T13:35:45.059Z,102105.69
2023-01-29T13:38:45.076Z,102092.03
2023-01-29T13:41:12.285Z,102097.06
2023-01-29T13:43:43.156Z,102088.53
2023-01-29T13:46:17.769Z,102077.63
2023-01-29T13:48:48.090Z,102081.09
2023-01-29T13:51:20.370Z,102070.03
2023-01-29T13:54:21.496Z,102063.22
2023-01-29T13:56:54.042Z,102066.72
2023-01-29T13:59:44.953Z,102064.44
2023-01-29T14:02:37.978Z,102069.75
2023-01-29T14:05:29.747Z,102076.06
2023-01-29T14:08:03.682Z,102080.28
2023-01-29T14:10:32.998Z,102077.91
2023-01-29T14:13:18.196Z,102072.78
2023-01-29T14:15:57.192Z,102062.50
2023-01-29T14:18:26.581Z,102068.47
2023-01-29T14:21:14.242Z,102061.59
2023-01-29T14:23:50.306Z,102056.47
2023-01-29T14:26:27.456Z,102055.53
2023-01-29T14:29:00.190Z,102053.69
2023-01-29T14:31:38.883Z,102046.00
2023-01-29T14:34:15.609Z,102045.19
2023-01-29T14:36:45.051Z,102039.22
2023-01-29T14:39:29.736Z,102037.56
2023-01-29T14:41:58.527Z,102033.38
2023-01-29T14:45:01.524Z,102025.56
2023-01-29T14:47:28.157Z,102034.09
2023-01-29T14:49:59.920Z,102019.41
2023-01-29T14:52:48.166Z,102015.00
2023-01-29T14:55:35.880Z,102015.72
2023-01-29T14:58:03.869Z,102005.28
2023-01-29T15:00:35.821Z,102015.56
2023-01-29T15:03:05.089Z,102012.34
2023-01-29T15:05:37.256Z,102001.44
2023-01-29T15:08:15.131Z,102002.16
2023-01-29T15:11:14.515Z,101998.69
2023-01-29T15:14:01.146Z,101995.31
2023-01-29T15:16:44.850Z,101994.56
2023-01-29T15:19:25.601Z,101995.38
2023-01-29T15:22:09.885Z,101990.34
2023-01-29T15:24:38.494Z,101994.13
2023-01-29T15:27:10.254Z,101995.13
2023-01-29T15:29:38.531Z,101985.66
2023-01-29T15:32:06.644Z,101983.09
2023-01-29T15:34:34.014Z,101985.78
2023-01-29T15:37:01.641Z,101972.22
2023-01-29T15:39:30.889Z,101972.41
2023-01-29T15:42:21.700Z,101964.69
2023-01-29T15:44:48.413Z,101966.53
2023-01-29T15:47:16.131Z,101964.06
2023-01-29T15:49:45.588Z,101953.16
2023-01-29T15:52:23.797Z,101954.09
2023-01-29T15:54:51.582Z,101954.25
2023-01-29T15:57:24.852Z,101965.25
2023-01-29T16:00:21.298Z,101960.41
2023-01-29T16:02:48.094Z,101961.41
2023-01-29T16:05:23.097Z,101963.25
2023-01-29T16:07:51.348Z,101951.44
2023-01-29T16:10:21.991Z,101954.94
2023-01-29T16:12:52.620Z,101957.78
2023-01-29T16:15:40.299Z,101952.94
2023-01-29T16:18:25.455Z,101952.94
2023-01-29T16:20:54.604Z,101946.84
2023-01-29T16:23:31.066Z,101947.78
2023-01-29T16:26:03.498Z,101942.84
2023-01-29T16:28:30.531Z,101941.00
2023-01-29T16:31:01.912Z,101941.91
2023-01-29T16:33:38.120Z,101936.78
2023-01-29T16:36:20.554Z,101937.59
2023-01-29T16:38:50.924Z,101937.59
2023-01-29T16:41:24.051Z,101934.97
2023-01-29T16:43:50.601Z,101942.75
2023-01-29T16:46:38.427Z,101934.31
2023-01-29T16:49:37.987Z,101931.66
2023-01-29T16:52:29.205Z,101926.72
2023-01-29T16:55:11.818Z,101910.41
2023-01-29T16:57:39.887Z,101907.84
2023-01-29T17:00:08.756Z,101918.91
2023-01-29T17:02:40.095Z,101915.47
2023-01-29T17:05:10.698Z,101906.81
2023-01-29T17:07:38.078Z,101908.38
2023-01-29T17:10:07.267Z,101905.81
2023-01-29T17:12:34.481Z,101893.09
2023-01-29T17:15:04.084Z,101892.25
2023-01-29T17:17:37.228Z,101900.88
2023-01-29T17:20:14.311Z,101900.13
2023-01-29T17:22:40.977Z,101895.09
2023-01-29T17:25:09.604Z,101893.28
2023-01-29T17:27:41.322Z,101888.97
2023-01-29T17:30:17.915Z,101882.09
2023-01-29T17:32:47.559Z,101882.09
2023-01-29T17:35:16.561Z,101871.19
2023-01-29T17:37:44.455Z,101878.88
2023-01-29T17:40:36.459Z,101881.38
2023-01-29T17:43:03.107Z,101876.25
2023-01-29T17:45:29.770Z,101881.38
2023-01-29T17:48:19.786Z,101871.31
2023-01-29T17:50:48.935Z,101866.16
2023-01-29T17:53:16.116Z,101856.81
2023-01-29T17:55:43.415Z,101864.50
2023-01-29T17:58:18.661Z,101858.66
2023-01-29T18:00:46.121Z,101847.38
2023-01-29T18:03:15.412Z,101855.91
2023-01-29T18:05:44.017Z,101843.91
2023-01-29T18:08:18.336Z,101850.69
2023-01-29T18:10:45.880Z,101842.09
2023-01-29T18:13:13.148Z,101828.31
2023-01-29T18:15:40.099Z,101824.97
2023-01-29T18:18:12.850Z,101819.00
2023-01-29T18:20:40.407Z,101804.63
2023-01-29T18:23:08.229Z,101808.75
2023-01-29T18:25:35.525Z,101810.47
2023-01-29T18:28:03.731Z,101810.59
2023-01-29T18:30:30.562Z,101802.06
2023-01-29T18:32:57.745Z,101807.06
2023-01-29T18:35:27.402Z,101807.00
2023-01-29T18:37:54.011Z,101804.50
2023-01-29T18:40:20.825Z,101791.69
2023-01-29T18:42:47.493Z,101777.13
2023-01-29T18:45:16.638Z,101788.28
2023-01-29T18:47:43.553Z,101778.88
2023-01-29T18:50:12.185Z,101795.91
2023-01-29T18:52:38.845Z,101787.38
2023-01-29T18:55:06.001Z,101772.84
2023-01-29T18:58:26.819Z,101777.97
2023-01-29T19:00:20.311Z,101755.78
2023-01-29T19:02:47.041Z,101745.63
2023-01-29T19:05:13.792Z,101754.22
2023-01-29T19:07:40.337Z,101750.75
2023-01-29T19:10:12.705Z,101749.81
2023-01-29T19:12:42.934Z,101739.56
2023-01-29T19:15:10.774Z,101743.91
2023-01-29T19:17:39.332Z,101729.31
2023-01-29T19:20:06.440Z,101718.25
2023-01-29T19:22:33.130Z,101720.69
2023-01-29T19:24:59.957Z,101710.44
2023-01-29T19:27:30.288Z,101722.38
2023-01-29T19:29:58.182Z,101701.91
2023-01-29T19:32:25.657Z,101702.66
2023-01-29T19:34:53.534Z,101702.66
2023-01-29T19:37:20.639Z,101701.84
2023-01-29T19:39:47.337Z,101702.66
2023-01-29T19:42:14.023Z,101682.94
2023-01-29T19:44:40.759Z,101673.41
2023-01-29T19:47:08.645Z,101675.91
2023-01-29T19:49:35.482Z,101682.66
2023-01-29T19:52:02.510Z,101683.38
2023-01-29T19:54:29.732Z,101676.41
2023-01-29T19:56:56.838Z,101665.34
2023-01-29T19:59:23.645Z,101660.09
2023-01-29T20:01:50.647Z,101652.41
2023-01-29T20:04:17.308Z,101661.00
2023-01-29T20:06:43.985Z,101655.88
2023-01-29T20:09:10.584Z,101647.16
2023-01-29T20:11:37.252Z,101640.19
2023-01-29T20:14:06.008Z,101634.03
2023-01-29T20:16:32.769Z,101640.72
2023-01-29T20:19:14.153Z,101645.75
2023-01-29T20:21:44.995Z,101629.44
2023-01-29T20:24:13.795Z,101638.78
2023-01-29T20:26:40.629Z,101642.97
2023-01-29T20:29:07.609Z,101636.00
2023-01-29T20:31:34.489Z,101634.25
2023-01-29T20:34:01.219Z,101629.84
2023-01-29T20:36:28.004Z,101615.28
2023-01-29T20:38:54.710Z,101605.84
2023-01-29T20:41:21.706Z,101607.38
2023-01-29T20:43:50.839Z,101632.09
2023-01-29T20:46:18.347Z,101638.78
2023-01-29T20:48:45.127Z,101647.31
2023-01-29T20:51:15.664Z,101633.56
2023-01-29T20:53:45.952Z,101618.97
2023-01-29T20:56:14.214Z,101619.78
2023-01-29T20:58:41.490Z,101629.22
2023-01-29T21:01:12.741Z,101618.88
2023-01-29T21:03:40.467Z,101628.19
2023-01-29T21:06:09.056Z,101624.72
2023-01-29T21:08:37.118Z,101630.56
2023-01-29T21:11:05.188Z,101621.13
2023-01-29T21:13:31.910Z,101619.41
2023-01-29T21:15:58.816Z,101599.66
2023-01-29T21:18:26.433Z,101595.34
2023-01-29T21:20:54.583Z,101607.28
2023-01-29T21:23:22.255Z,101612.41
2023-01-29T21:25:48.939Z,101590.03
2023-01-29T21:28:16.653Z,101602.75
2023-01-29T21:30:43.992Z,101598.31
2023-01-29T21:33:10.605Z,101605.00
2023-01-29T21:35:37.899Z,101599.88
2023-01-29T21:38:05.039Z,101596.28
2023-01-29T21:40:32.621Z,101596.97
2023-01-29T21:43:16.025Z,101595.97
2023-01-29T21:45:43.139Z,101587.34
2023-01-29T21:48:11.285Z,101598.31
2023-01-29T21:50:38.565Z,101597.38
2023-01-29T21:53:05.934Z,101595.53
2023-01-29T21:55:32.915Z,101592.97
2023-01-29T21:58:00.511Z,101610.84
2023-01-29T22:00:27.846Z,101609.91
2023-01-29T22:02:55.692Z,101603.03
2023-01-29T22:05:22.521Z,101592.56
2023-01-29T22:07:50.762Z,101583.00
2023-01-29T22:10:19.155Z,101570.03
2023-01-29T22:12:46.892Z,101549.50
2023-01-29T22:15:15.112Z,101543.44
2023-01-29T22:17:42.253Z,101529.56
2023-01-29T22:20:13.204Z,101504.81
2023-01-29T22:22:40.307Z,101499.69
2023-01-29T22:25:07.261Z,101486.63
2023-01-29T22:27:34.557Z,101452.41
2023-01-29T22:30:01.361Z,101472.97
2023-01-29T22:32:28.921Z,101446.38
2023-01-29T22:34:55.999Z,101460.81
2023-01-29T22:37:22.584Z,101454.78
2023-01-29T22:39:49.225Z,101440.06
2023-01-29T22:42:18.902Z,101437.63
2023-01-29T22:44:45.580Z,101465.63
2023-01-29T22:47:12.391Z,101468.81
2023-01-29T22:49:39.024Z,101424.22
2023-01-29T22:52:11.576Z,101421.63
2023-01-29T22:54:44.399Z,101419.91
2023-01-29T22:57:12.681Z,101436.13
2023-01-29T22:59:39.773Z,101418.03
2023-01-29T23:02:08.548Z,101400.06
2023-01-29T23:04:35.356Z,101386.28
2023-01-29T23:07:02.628Z,101386.16
2023-01-29T23:09:30.520Z,101373.31
2023-01-29T23:11:57.127Z,101347.53
2023-01-29T23:14:23.920Z,101347.44
2023-01-29T23:16:51.965Z,101354.19
2023-01-29T23:19:19.727Z,101361.66
2023-01-29T23:21:46.453Z,101362.38
2023-01-29T23:24:13.230Z,101370.78
2023-01-29T23:26:58.355Z,101369.88
2023-01-29T23:29:25.114Z,101381.66
2023-01-29T23:31:51.717Z,101407.13
2023-01-29T23:34:18.677Z,101392.53
2023-01-29T23:36:45.445Z,101401.75
2023-01-29T23:39:12.172Z,101382.84
2023-01-29T23:41:38.856Z,101362.28
2023-01-29T23:44:05.554Z,101367.19
2023-01-29T23:46:32.611Z,101374.91
2023-01-29T23:48:59.238Z,101360.22
2023-01-29T23:51:26.044Z,101348.06
2023-01-29T23:53:53.036Z,101333.44
2023-01-29T23:56:19.647Z,101321.19
2023-01-29T23:58:47.908Z,101324.59
